Time;durP1;ratioP1;P1;durP2;ratioP2;P2;SDS_P1;SDS_P2;PMS_P1;PMS_P2;Temp;Humidity;BMP_temperature;BMP_pressure;BME280_temperature;BME280_humidity;BME280_pressure;Samples;Min_cycle;Max_cycle;Signal;HPM_P1;HPM_P2
2021/08/15 00:00:14;;;;;;;9.38;7.07;;;18.30;99.90;;;;;;5129196;27;20435;-72
2021/08/15 00:02:43;;;;;;;118.97;32.07;;;18.30;99.90;;;;;;5114227;28;20222;-72
2021/08/15 00:05:12;;;;;;;129.70;39.80;;;18.30;99.90;;;;;;5114200;28;20444;-72
2021/08/15 00:07:42;;;;;;;101.37;35.13;;;18.30;99.90;;;;;;5112626;28;20439;-72
2021/08/15 00:10:11;;;;;;;127.37;36.50;;;18.20;99.90;;;;;;5113773;28;20555;-72
2021/08/15 00:12:41;;;;;;;133.87;40.63;;;18.20;99.90;;;;;;5113694;28;20817;-72
2021/08/15 00:15:11;;;;;;;150.20;42.90;;;18.20;99.90;;;;;;5112093;28;20538;-72
2021/08/15 00:17:41;;;;;;;70.70;35.53;;;18.20;99.90;;;;;;5113832;28;20435;-72
2021/08/15 00:20:11;;;;;;;111.87;31.73;;;18.10;99.90;;;;;;5112255;28;20539;-71
2021/08/15 00:22:42;;;;;;;145.00;41.83;;;18.10;99.90;;;;;;5114003;28;20494;-72
2021/08/15 00:25:13;;;;;;;9.93;6.97;;;18.10;99.90;;;;;;5112985;28;20484;-72
2021/08/15 00:27:41;;;;;;;83.73;30.33;;;18.20;99.90;;;;;;5113821;27;20190;-71
2021/08/15 00:30:11;;;;;;;101.30;31.30;;;18.20;99.90;;;;;;5113355;28;20563;-71
2021/08/15 00:32:39;;;;;;;133.90;40.50;;;18.10;99.90;;;;;;5113281;28;20965;-71
2021/08/15 00:35:08;;;;;;;121.10;35.87;;;18.10;99.90;;;;;;5113398;28;20863;-72
2021/08/15 00:37:37;;;;;;;114.07;38.30;;;18.10;99.90;;;;;;5113477;28;20536;-71
2021/08/15 00:40:09;;;;;;;123.77;31.63;;;18.10;99.90;;;;;;5112078;28;20490;-72
2021/08/15 00:42:37;;;;;;;146.73;39.43;;;18.00;99.90;;;;;;5113307;28;20479;-72
2021/08/15 00:45:06;;;;;;;148.40;37.73;;;18.00;99.90;;;;;;5113291;28;20465;-72
2021/08/15 00:47:34;;;;;;;122.73;34.97;;;18.00;99.90;;;;;;5113192;28;20428;-72
2021/08/15 00:50:05;;;;;;;41.72;15.05;;;18.00;99.90;;;;;;5112752;28;20500;-72
2021/08/15 00:52:33;;;;;;;116.07;33.47;;;17.90;99.90;;;;;;5113241;28;20293;-72
2021/08/15 00:55:02;;;;;;;98.38;28.27;;;17.90;99.90;;;;;;5113315;28;20537;-72
2021/08/15 00:57:32;;;;;;;116.80;31.07;;;18.00;99.90;;;;;;5113234;28;20289;-72
2021/08/15 01:00:05;;;;;;;147.70;39.30;;;17.90;99.90;;;;;;5113758;28;20519;-72
2021/08/15 01:02:33;;;;;;;119.90;37.00;;;17.90;99.90;;;;;;5110911;28;20514;-72
2021/08/15 01:05:03;;;;;;;164.37;41.30;;;17.90;99.90;;;;;;5113625;28;20496;-72
2021/08/15 01:07:31;;;;;;;104.43;38.47;;;17.90;99.90;;;;;;5111874;28;20465;-71
2021/08/15 01:09:59;;;;;;;153.03;35.70;;;17.80;99.90;;;;;;5113087;28;20570;-71
2021/08/15 01:12:28;;;;;;;145.63;40.27;;;17.80;99.90;;;;;;5111804;28;20463;-71
2021/08/15 01:14:59;;;;;;;101.17;36.93;;;17.90;99.90;;;;;;5112771;28;20542;-71
2021/08/15 01:17:29;;;;;;;117.90;38.03;;;17.80;99.90;;;;;;5113464;28;20476;-71
2021/08/15 01:19:58;;;;;;;123.10;35.90;;;17.80;99.90;;;;;;5111534;28;20950;-71
2021/08/15 01:22:27;;;;;;;10.68;7.32;;;17.80;99.90;;;;;;5111977;28;20426;-71
2021/08/15 01:24:58;;;;;;;104.47;36.00;;;17.90;99.90;;;;;;5114674;28;20190;-71
2021/08/15 01:27:28;;;;;;;121.30;31.57;;;17.90;99.90;;;;;;5117351;28;20514;-71
2021/08/15 01:29:58;;;;;;;159.07;37.13;;;17.90;99.90;;;;;;5117312;28;20542;-71
2021/08/15 01:32:26;;;;;;;128.30;37.50;;;17.80;99.90;;;;;;5116960;28;20454;-72
2021/08/15 01:34:55;;;;;;;99.87;33.90;;;17.80;99.90;;;;;;5116663;28;20451;-71
2021/08/15 01:37:24;;;;;;;141.90;41.57;;;17.70;99.90;;;;;;5116865;28;20522;-72
2021/08/15 01:39:52;;;;;;;174.03;38.40;;;17.70;99.90;;;;;;5116640;28;20997;-71
2021/08/15 01:42:20;;;;;;;9.60;7.70;;;17.70;99.90;;;;;;5114471;28;20435;-71
2021/08/15 01:44:48;;;;;;;123.57;36.70;;;17.80;99.90;;;;;;5116702;28;20437;-72
2021/08/15 01:47:18;;;;;;;117.33;40.37;;;17.80;99.90;;;;;;5116499;28;20929;-71
2021/08/15 01:49:46;;;;;;;116.23;39.07;;;17.70;99.90;;;;;;5116738;28;20452;-71
2021/08/15 01:52:14;;;;;;;129.60;37.77;;;17.70;99.90;;;;;;5115011;28;20489;-72
2021/08/15 01:54:42;;;;;;;130.57;37.07;;;17.60;99.90;;;;;;5116622;28;20461;-72
2021/08/15 01:57:10;;;;;;;149.17;44.00;;;17.60;99.90;;;;;;5116025;28;20923;-71
2021/08/15 01:59:38;;;;;;;124.80;34.53;;;17.60;99.90;;;;;;5115025;28;20530;-71
2021/08/15 02:02:07;;;;;;;97.20;40.60;;;17.60;99.90;;;;;;5116094;28;20467;-71
2021/08/15 02:04:37;;;;;;;130.10;39.27;;;17.50;99.90;;;;;;5116318;28;20431;-71
2021/08/15 02:07:06;;;;;;;159.37;36.63;;;17.50;99.90;;;;;;5116914;28;20431;-71
2021/08/15 02:09:34;;;;;;;140.93;43.00;;;17.50;99.90;;;;;;5114902;28;20961;-71
2021/08/15 02:12:03;;;;;;;155.10;39.60;;;17.50;99.90;;;;;;5116222;28;20500;-72
2021/08/15 02:14:31;;;;;;;13.50;8.73;;;17.50;99.90;;;;;;5114704;28;20431;-72
2021/08/15 02:17:00;;;;;;;119.20;37.77;;;17.50;99.90;;;;;;5115898;28;20519;-71
2021/08/15 02:19:28;;;;;;;131.83;33.70;;;17.50;99.90;;;;;;5115803;28;20436;-71
2021/08/15 02:21:57;;;;;;;145.93;32.53;;;17.50;99.90;;;;;;5115851;27;20929;-71
2021/08/15 02:24:28;;;;;;;142.87;38.07;;;17.50;99.90;;;;;;5116931;28;20428;-72
2021/08/15 02:26:56;;;;;;;120.30;35.17;;;17.40;99.90;;;;;;5114401;28;20450;-72
2021/08/15 02:29:24;;;;;;;166.43;39.40;;;17.40;99.90;;;;;;5115672;28;20530;-71
2021/08/15 02:31:52;;;;;;;167.30;42.43;;;17.40;99.90;;;;;;5115805;28;20491;-71
2021/08/15 02:34:22;;;;;;;42.85;16.85;;;17.40;99.90;;;;;;5115268;28;20430;-71
2021/08/15 02:36:50;;;;;;;143.50;37.73;;;17.40;99.90;;;;;;5115227;28;20292;-71
2021/08/15 02:39:20;;;;;;;131.60;36.93;;;17.40;99.90;;;;;;5115544;28;20443;-71
2021/08/15 02:41:48;;;;;;;139.40;34.70;;;17.30;99.90;;;;;;5115835;28;20438;-72
2021/08/15 02:44:16;;;;;;;160.87;45.77;;;17.30;99.90;;;;;;5114180;28;20439;-72
2021/08/15 02:46:44;;;;;;;158.30;39.00;;;17.30;99.90;;;;;;5114654;28;20849;-72
2021/08/15 02:49:12;;;;;;;108.73;39.37;;;17.30;99.90;;;;;;5115275;28;20493;-71
2021/08/15 02:51:40;;;;;;;122.60;42.53;;;17.30;99.90;;;;;;5115328;28;20515;-72
2021/08/15 02:54:09;;;;;;;133.80;44.50;;;17.20;99.90;;;;;;5115197;28;20451;-71
2021/08/15 02:56:38;;;;;;;117.87;41.10;;;17.20;99.90;;;;;;5115783;28;20435;-72
2021/08/15 02:59:06;;;;;;;127.07;46.03;;;17.20;99.90;;;;;;5115707;28;20941;-72
2021/08/15 03:01:34;;;;;;;12.93;8.23;;;17.20;99.90;;;;;;5114341;28;20431;-71
2021/08/15 03:04:02;;;;;;;105.30;38.57;;;17.30;99.90;;;;;;5115225;28;20491;-71
2021/08/15 03:06:31;;;;;;;126.30;38.03;;;17.20;99.90;;;;;;5113971;28;20963;-71
2021/08/15 03:08:59;;;;;;;102.87;39.57;;;17.20;99.90;;;;;;5115508;28;20450;-71
2021/08/15 03:11:27;;;;;;;108.90;38.53;;;17.20;99.90;;;;;;5130140;27;20446;-71
2021/08/15 03:13:56;;;;;;;84.10;41.20;;;17.20;99.90;;;;;;5115023;28;20499;-71
2021/08/15 03:16:24;;;;;;;99.93;40.60;;;17.20;99.90;;;;;;5114727;28;20414;-71
2021/08/15 03:18:53;;;;;;;112.67;40.67;;;17.20;99.90;;;;;;5114720;28;20431;-71
2021/08/15 03:21:21;;;;;;;177.90;36.93;;;17.20;99.90;;;;;;5115029;28;20432;-71
2021/08/15 03:23:49;;;;;;;96.63;43.93;;;17.20;99.90;;;;;;5114665;28;20455;-72
2021/08/15 03:26:17;;;;;;;93.13;39.60;;;17.10;99.90;;;;;;5114600;28;20449;-72
2021/08/15 03:28:45;;;;;;;133.33;41.07;;;17.20;99.90;;;;;;5113252;28;20436;-72
2021/08/15 03:31:14;;;;;;;10.95;8.68;;;17.10;99.90;;;;;;5113387;28;20430;-72
2021/08/15 03:33:43;;;;;;;129.00;37.57;;;17.20;99.90;;;;;;5114708;28;20217;-71
2021/08/15 03:36:11;;;;;;;51.13;21.00;;;17.20;99.90;;;;;;5114146;28;20445;-71
2021/08/15 03:38:39;;;;;;;85.00;36.57;;;17.20;99.90;;;;;;5115160;28;20190;-71
2021/08/15 03:41:07;;;;;;;98.07;40.37;;;17.20;99.90;;;;;;5114641;28;20493;-71
2021/08/15 03:43:35;;;;;;;94.57;42.77;;;17.20;99.90;;;;;;5113028;28;20524;-71
2021/08/15 03:46:03;;;;;;;134.47;42.37;;;17.20;99.90;;;;;;5112906;28;20448;-71
2021/08/15 03:48:33;;;;;;;122.83;42.40;;;17.20;99.90;;;;;;5113684;28;20490;-72
2021/08/15 03:51:01;;;;;;;151.63;46.73;;;17.20;99.90;;;;;;5112203;28;20463;-71
2021/08/15 03:53:29;;;;;;;139.87;41.57;;;17.20;99.90;;;;;;5112586;28;20553;-71
2021/08/15 03:55:57;;;;;;;133.40;44.27;;;17.10;99.90;;;;;;5114679;28;20427;-72
2021/08/15 03:58:28;;;;;;;10.20;8.15;;;17.10;99.90;;;;;;5113519;28;20529;-72
2021/08/15 04:00:56;;;;;;;120.60;38.07;;;17.20;99.90;;;;;;5112784;28;20277;-72
2021/08/15 04:03:25;;;;;;;42.37;19.93;;;17.20;99.90;;;;;;5113633;28;20442;-71
2021/08/15 04:05:56;;;;;;;112.47;39.20;;;17.20;99.90;;;;;;5112629;28;20439;-72
2021/08/15 04:08:26;;;;;;;138.70;39.23;;;17.20;99.90;;;;;;5113884;28;20511;-72
2021/08/15 04:10:54;;;;;;;130.63;38.97;;;17.20;99.90;;;;;;5113538;28;20418;-71
2021/08/15 04:13:22;;;;;;;146.53;37.20;;;17.20;99.90;;;;;;5113865;28;20450;-71
2021/08/15 04:15:50;;;;;;;96.97;33.57;;;17.20;99.90;;;;;;5113872;28;20474;-71
2021/08/15 04:18:18;;;;;;;165.33;40.33;;;17.20;99.90;;;;;;5113713;28;20421;-71
2021/08/15 04:20:46;;;;;;;179.60;41.47;;;17.20;99.90;;;;;;5114396;28;20500;-71
2021/08/15 04:23:16;;;;;;;109.77;35.90;;;17.20;99.90;;;;;;5114170;28;20546;-71
2021/08/15 04:25:45;;;;;;;12.55;9.52;;;17.20;99.90;;;;;;5113095;28;20474;-71
2021/08/15 04:28:13;;;;;;;117.87;33.13;;;17.20;99.90;;;;;;5114124;28;20194;-71
2021/08/15 04:30:41;;;;;;;58.15;21.70;;;17.30;99.90;;;;;;5111910;28;20449;-71
2021/08/15 04:33:10;;;;;;;127.73;34.50;;;17.30;99.90;;;;;;5113272;28;20560;-71
2021/08/15 04:35:38;;;;;;;100.03;32.93;;;17.30;99.90;;;;;;5111744;28;20447;-71
2021/08/15 04:38:06;;;;;;;122.50;40.27;;;17.30;99.90;;;;;;5112226;28;20833;-71
2021/08/15 04:40:35;;;;;;;117.47;42.17;;;17.30;99.90;;;;;;5113404;28;20953;-71
2021/08/15 04:43:03;;;;;;;170.40;40.07;;;17.30;99.90;;;;;;5113577;28;20455;-71
2021/08/15 04:45:31;;;;;;;178.70;43.87;;;17.30;99.90;;;;;;5111959;28;20444;-71
2021/08/15 04:48:00;;;;;;;115.50;40.00;;;17.30;99.90;;;;;;5113384;28;20478;-71
2021/08/15 04:50:28;;;;;;;173.63;43.47;;;17.30;99.90;;;;;;5096014;28;20447;-71
2021/08/15 04:52:56;;;;;;;57.08;21.10;;;17.40;99.90;;;;;;5112877;28;20795;-71
2021/08/15 04:55:25;;;;;;;110.60;37.33;;;17.40;99.90;;;;;;5111918;28;20204;-71
2021/08/15 04:57:54;;;;;;;137.98;36.00;;;17.40;99.90;;;;;;5113310;28;20327;-71
2021/08/15 05:00:22;;;;;;;126.03;41.13;;;17.40;99.90;;;;;;5117469;28;20197;-71
2021/08/15 05:02:50;;;;;;;110.27;41.30;;;17.40;99.90;;;;;;5116953;28;20832;-71
2021/08/15 05:05:19;;;;;;;198.80;42.23;;;17.40;99.90;;;;;;5117389;28;20439;-72
2021/08/15 05:07:47;;;;;;;115.20;40.00;;;17.40;99.90;;;;;;5117273;28;20507;-72
2021/08/15 05:10:16;;;;;;;132.87;38.87;;;17.40;99.90;;;;;;5117744;28;20888;-72
2021/08/15 05:12:44;;;;;;;141.03;43.87;;;17.50;99.90;;;;;;5117324;28;20989;-72
2021/08/15 05:15:13;;;;;;;134.77;39.57;;;17.50;99.90;;;;;;5116332;28;20505;-71
2021/08/15 05:17:42;;;;;;;145.87;41.77;;;17.50;99.90;;;;;;5117213;28;20428;-71
2021/08/15 05:20:11;;;;;;;89.23;29.30;;;17.50;99.90;;;;;;5117205;28;20437;-71
2021/08/15 05:22:39;;;;;;;132.53;44.07;;;17.50;99.90;;;;;;5116925;28;20524;-71
2021/08/15 05:25:08;;;;;;;127.33;39.83;;;17.60;99.90;;;;;;5115818;28;20945;-71
2021/08/15 05:27:37;;;;;;;11.77;8.40;;;17.50;99.90;;;;;;5115127;27;20458;-71
2021/08/15 05:30:07;;;;;;;108.27;34.20;;;17.60;99.90;;;;;;5117212;28;20535;-71
2021/08/15 05:32:37;;;;;;;96.53;32.53;;;17.70;99.90;;;;;;5115399;28;20514;-71
2021/08/15 05:35:06;;;;;;;176.87;40.83;;;17.70;99.90;;;;;;5116770;28;20900;-71
2021/08/15 05:37:34;;;;;;;205.93;39.37;;;17.70;99.90;;;;;;5116866;28;20515;-71
2021/08/15 05:40:02;;;;;;;144.37;42.80;;;17.70;99.90;;;;;;5115513;28;20485;-71
2021/08/15 05:42:30;;;;;;;167.83;42.67;;;17.70;99.90;;;;;;5116634;28;20834;-71
2021/08/15 05:44:58;;;;;;;172.57;42.97;;;17.70;99.90;;;;;;5115343;28;20926;-71
2021/08/15 05:47:26;;;;;;;140.53;42.67;;;17.80;99.90;;;;;;5116239;28;20450;-71
2021/08/15 05:49:56;;;;;;;141.27;43.00;;;17.80;99.90;;;;;;5115276;28;20861;-71
2021/08/15 05:52:27;;;;;;;12.85;8.77;;;17.80;99.90;;;;;;5115316;28;20775;-71
2021/08/15 05:54:55;;;;;;;140.47;38.60;;;17.90;99.90;;;;;;5116725;28;20635;-71
2021/08/15 05:57:23;;;;;;;14.05;9.73;;;18.00;99.90;;;;;;5116137;27;20521;-71
2021/08/15 05:59:51;;;;;;;110.17;40.13;;;18.00;99.90;;;;;;5116354;28;20197;-71
2021/08/15 06:02:19;;;;;;;123.80;43.53;;;18.10;99.90;;;;;;5117049;28;20500;-69
2021/08/15 06:04:47;;;;;;;133.47;40.97;;;18.10;99.90;;;;;;5116296;28;20469;-69
2021/08/15 06:07:17;;;;;;;111.13;42.67;;;18.10;99.90;;;;;;5116567;28;20446;-69
2021/08/15 06:09:45;;;;;;;150.93;46.20;;;18.10;99.90;;;;;;5115994;28;20813;-69
2021/08/15 06:12:13;;;;;;;170.53;48.70;;;18.10;99.90;;;;;;5115931;28;20814;-69
2021/08/15 06:14:41;;;;;;;160.17;40.70;;;18.20;99.90;;;;;;5116441;28;20447;-69
2021/08/15 06:17:09;;;;;;;170.40;42.77;;;18.20;99.90;;;;;;5114739;28;20459;-69
2021/08/15 06:19:37;;;;;;;11.43;9.13;;;18.30;99.90;;;;;;5115395;28;20427;-69
2021/08/15 06:22:08;;;;;;;136.27;35.67;;;18.30;99.90;;;;;;5114654;28;20218;-69
2021/08/15 06:24:37;;;;;;;54.03;18.70;;;18.40;99.90;;;;;;5116211;27;20512;-69
2021/08/15 06:27:06;;;;;;;148.90;39.50;;;18.40;99.90;;;;;;5114956;28;20236;-69
2021/08/15 06:29:34;;;;;;;155.47;47.23;;;18.50;99.90;;;;;;5113865;28;20456;-70
2021/08/15 06:32:02;;;;;;;123.27;42.50;;;18.70;99.90;;;;;;5115842;28;20991;-70
2021/08/15 06:34:30;;;;;;;168.23;42.90;;;18.90;99.90;;;;;;5115285;28;20483;-70
2021/08/15 06:36:58;;;;;;;175.70;48.13;;;18.90;99.90;;;;;;5115114;28;20531;-69
2021/08/15 06:39:26;;;;;;;161.73;41.63;;;19.10;99.90;;;;;;5116203;28;20479;-69
2021/08/15 06:41:56;;;;;;;174.03;63.07;;;19.40;99.90;;;;;;5115527;28;20432;-70
2021/08/15 06:44:24;;;;;;;179.17;63.77;;;19.60;99.90;;;;;;5114460;28;20440;-69
2021/08/15 06:46:52;;;;;;;16.08;14.77;;;19.90;99.90;;;;;;5113815;28;20860;-69
2021/08/15 06:49:20;;;;;;;242.67;71.10;;;20.20;99.90;;;;;;5095317;28;20626;-69
2021/08/15 06:51:48;;;;;;;93.45;34.30;;;20.50;99.90;;;;;;5093395;28;20939;-70
2021/08/15 06:54:16;;;;;;;201.63;63.10;;;20.70;99.90;;;;;;5095083;28;20206;-69
2021/08/15 06:56:45;;;;;;;279.63;53.60;;;21.00;99.90;;;;;;5106765;28;20530;-70
2021/08/15 06:59:15;;;;;;;279.17;48.47;;;21.20;99.90;;;;;;5114475;28;20519;-70
2021/08/15 07:01:44;;;;;;;251.70;49.13;;;21.40;99.90;;;;;;5115445;28;20427;-69
2021/08/15 07:04:12;;;;;;;278.20;62.17;;;21.50;99.90;;;;;;5115498;28;20481;-70
2021/08/15 07:06:40;;;;;;;279.63;70.47;;;21.70;99.90;;;;;;5115319;28;20466;-69
2021/08/15 07:09:09;;;;;;;278.50;78.57;;;21.90;99.90;;;;;;5115394;28;20511;-69
2021/08/15 07:11:37;;;;;;;279.50;83.93;;;22.10;99.90;;;;;;5113782;28;20515;-69
2021/08/15 07:14:05;;;;;;;47.80;17.58;;;22.20;99.90;;;;;;5112973;28;20443;-70
2021/08/15 07:16:34;;;;;;;279.03;84.40;;;22.30;99.90;;;;;;5115060;28;20205;-71
2021/08/15 07:19:03;;;;;;;213.35;64.63;;;22.30;99.90;;;;;;5113278;28;20526;-69
2021/08/15 07:21:31;;;;;;;270.83;86.93;;;22.30;99.90;;;;;;5112660;28;20193;-69
2021/08/15 07:23:59;;;;;;;277.67;81.57;;;22.40;99.90;;;;;;5113145;28;20463;-71
2021/08/15 07:26:27;;;;;;;281.73;85.17;;;22.50;99.90;;;;;;5115252;28;20518;-70
2021/08/15 07:28:55;;;;;;;279.83;84.80;;;22.60;99.90;;;;;;5114697;28;20436;-70
2021/08/15 07:31:24;;;;;;;279.67;86.83;;;22.80;99.90;;;;;;5114994;28;20450;-71
2021/08/15 07:33:53;;;;;;;282.23;95.10;;;22.90;99.90;;;;;;5114481;28;20471;-69
2021/08/15 07:36:24;;;;;;;282.67;92.53;;;22.80;99.90;;;;;;5115210;28;20439;-71
2021/08/15 07:38:52;;;;;;;287.70;94.57;;;22.80;99.90;;;;;;5114846;28;20498;-74
2021/08/15 07:41:20;;;;;;;8.80;5.70;;;22.90;99.90;;;;;;5112629;28;20442;-72
2021/08/15 07:43:48;;;;;;;283.13;81.60;;;23.10;99.90;;;;;;5114087;28;20218;-72
2021/08/15 07:46:16;;;;;;;298.30;95.77;;;23.20;99.90;;;;;;5114805;28;20450;-72
2021/08/15 07:48:44;;;;;;;306.90;91.53;;;23.30;99.90;;;;;;5114413;27;20937;-71
2021/08/15 07:51:14;;;;;;;294.87;83.67;;;23.40;99.90;;;;;;5113014;28;20447;-71
2021/08/15 07:53:42;;;;;;;290.67;83.37;;;23.40;99.90;;;;;;5114852;28;20494;-70
2021/08/15 07:56:10;;;;;;;295.87;81.60;;;23.40;99.90;;;;;;5114338;28;20454;-70
2021/08/15 07:58:38;;;;;;;302.70;85.73;;;23.40;99.80;;;;;;5114836;28;20436;-69
2021/08/15 08:01:06;;;;;;;315.10;82.57;;;23.50;99.70;;;;;;5114489;28;20465;-71
2021/08/15 08:03:34;;;;;;;306.60;82.70;;;23.50;99.50;;;;;;5112688;28;20467;-71
2021/08/15 08:06:03;;;;;;;329.07;93.43;;;23.50;99.50;;;;;;5112461;28;20922;-71
2021/08/15 08:08:32;;;;;;;8.50;5.93;;;23.60;99.50;;;;;;5096577;28;20433;-70
2021/08/15 08:11:00;;;;;;;291.83;78.93;;;23.70;98.90;;;;;;5114944;28;20199;-70
2021/08/15 08:13:29;;;;;;;131.07;40.60;;;23.70;98.90;;;;;;5114601;28;20445;-70
2021/08/15 08:15:57;;;;;;;297.83;86.27;;;23.80;98.90;;;;;;5114868;28;20191;-70
2021/08/15 08:18:25;;;;;;;310.07;96.13;;;23.90;98.90;;;;;;5114904;28;20468;-70
2021/08/15 08:20:54;;;;;;;348.97;101.17;;;24.00;98.70;;;;;;5115077;28;20953;-70
2021/08/15 08:23:22;;;;;;;327.47;94.83;;;24.00;98.60;;;;;;5113449;28;20475;-71
2021/08/15 08:25:51;;;;;;;342.50;90.90;;;24.00;98.50;;;;;;5114326;28;20837;-71
2021/08/15 08:28:19;;;;;;;307.63;90.37;;;24.00;98.60;;;;;;5114369;28;20474;-72
2021/08/15 08:30:48;;;;;;;343.47;96.53;;;24.10;98.50;;;;;;5114982;28;20435;-72
2021/08/15 08:33:16;;;;;;;116.40;65.83;;;24.10;98.30;;;;;;5114001;28;20910;-72
2021/08/15 08:35:44;;;;;;;368.60;95.30;;;24.10;98.10;;;;;;5114556;28;20462;-72
2021/08/15 08:38:13;;;;;;;128.60;62.93;;;24.20;98.00;;;;;;5114687;28;20462;-72
2021/08/15 08:40:43;;;;;;;7.28;5.53;;;24.20;97.80;;;;;;5113747;28;20498;-72
2021/08/15 08:43:12;;;;;;;333.87;95.53;;;24.30;97.00;;;;;;5114949;28;20700;-72
2021/08/15 08:45:45;;;;;;;331.77;110.00;;;24.30;97.10;;;;;;5114519;28;20967;-71
2021/08/15 08:48:15;;;;;;;361.50;99.57;;;24.30;97.20;;;;;;5114100;28;20439;-71
2021/08/15 08:50:44;;;;;;;352.43;100.83;;;24.30;97.20;;;;;;5114391;28;20435;-71
2021/08/15 08:53:13;;;;;;;347.63;110.90;;;24.40;97.30;;;;;;5112800;28;20467;-71
2021/08/15 08:55:43;;;;;;;79.23;58.00;;;24.50;97.40;;;;;;5092426;28;20486;-71
2021/08/15 08:58:12;;;;;;;332.33;106.87;;;24.60;97.40;;;;;;5094298;28;20891;-71
2021/08/15 09:00:40;;;;;;;7.50;4.55;;;24.70;97.40;;;;;;5093047;28;20780;-71
2021/08/15 09:03:09;;;;;;;430.97;116.23;;;24.90;97.00;;;;;;5094363;28;20292;-71
2021/08/15 09:05:37;;;;;;;27.00;25.50;;;25.10;96.90;;;;;;5092667;28;20788;-71
2021/08/15 09:08:06;;;;;;;108.77;65.93;;;25.10;96.60;;;;;;5094685;28;20202;-71
2021/08/15 09:10:37;;;;;;;129.57;63.37;;;25.10;96.50;;;;;;5094414;28;20815;-71
2021/08/15 09:13:07;;;;;;;150.60;89.80;;;25.10;96.30;;;;;;5092642;28;20567;-72
2021/08/15 09:15:38;;;;;;;45.57;43.30;;;25.10;96.30;;;;;;5093842;28;20468;-72
2021/08/15 09:18:06;;;;;;;31.77;29.90;;;25.00;96.20;;;;;;5092789;28;20594;-71
2021/08/15 09:20:40;;;;;;;146.40;76.87;;;25.00;96.30;;;;;;5092275;28;20982;-72
2021/08/15 09:23:20;;;;;;;119.00;63.57;;;24.90;96.10;;;;;;5093821;28;20451;-72
2021/08/15 09:26:09;;;;;;;9.77;7.82;;;24.90;96.20;;;;;;5091893;28;20442;-71
2021/08/15 09:28:37;;;;;;;354.93;121.80;;;25.00;96.00;;;;;;5093790;28;20652;-71
2021/08/15 09:31:17;;;;;;;204.10;76.20;;;25.10;96.10;;;;;;5074449;28;20452;-71
2021/08/15 09:33:45;;;;;;;176.13;102.27;;;25.10;95.80;;;;;;5089151;28;20254;-71
2021/08/15 09:36:24;;;;;;;192.57;105.33;;;25.20;95.90;;;;;;5093707;28;20475;-71
2021/08/15 09:38:56;;;;;;;230.47;106.90;;;25.20;95.80;;;;;;5091918;28;20952;-71
2021/08/15 09:41:32;;;;;;;207.97;92.27;;;25.20;95.70;;;;;;5092995;28;20416;-71
2021/08/15 09:44:21;;;;;;;51.77;49.07;;;25.20;95.70;;;;;;5092941;28;20472;-71
2021/08/15 09:47:08;;;;;;;45.87;43.60;;;25.20;95.60;;;;;;5096368;28;20442;-71
2021/08/15 09:49:42;;;;;;;209.17;90.07;;;25.10;95.50;;;;;;5096117;28;20949;-72
2021/08/15 09:52:12;;;;;;;118.93;72.40;;;25.10;95.50;;;;;;5094944;28;21017;-71
2021/08/15 09:54:40;;;;;;;126.53;72.40;;;25.10;95.70;;;;;;5096338;28;20563;-71
2021/08/15 09:57:27;;;;;;;18.67;17.20;;;25.20;95.80;;;;;;5096096;28;20490;-71
2021/08/15 09:59:56;;;;;;;174.67;114.07;;;25.30;95.30;;;;;;5094917;28;20724;-71
2021/08/15 10:02:26;;;;;;;60.53;57.43;;;25.30;95.40;;;;;;5096499;28;20491;-71
2021/08/15 10:04:56;;;;;;;59.87;57.07;;;25.40;95.60;;;;;;5094820;28;20941;-72
2021/08/15 10:07:25;;;;;;;178.13;98.53;;;25.40;95.70;;;;;;5096327;28;20432;-73
2021/08/15 10:09:53;;;;;;;73.97;70.57;;;25.50;95.70;;;;;;5096073;28;20550;-74
2021/08/15 10:12:21;;;;;;;61.00;57.97;;;25.50;95.50;;;;;;5096461;28;20455;-74
2021/08/15 10:14:49;;;;;;;81.13;59.60;;;25.60;95.50;;;;;;5093445;28;20923;-68
2021/08/15 10:17:19;;;;;;;178.90;117.50;;;25.60;95.50;;;;;;5095692;28;20200;-67
2021/08/15 10:19:55;;;;;;;186.53;127.77;;;25.60;95.30;;;;;;5095637;28;20930;-68
2021/08/15 10:22:25;;;;;;;13.75;12.65;;;25.70;95.30;;;;;;5094973;28;20808;-67
2021/08/15 10:24:57;;;;;;;385.87;141.70;;;25.70;95.20;;;;;;5095557;28;20273;-67
2021/08/15 10:27:45;;;;;;;148.77;120.20;;;25.80;95.50;;;;;;5094358;28;20432;-68
2021/08/15 10:30:46;;;;;;;179.60;115.57;;;25.90;95.50;;;;;;5095705;28;20432;-68
2021/08/15 10:33:19;;;;;;;67.63;64.63;;;26.10;95.50;;;;;;5095630;28;20460;-68
2021/08/15 10:36:22;;;;;;;247.67;135.60;;;26.20;95.70;;;;;;5095367;28;20919;-68
2021/08/15 10:38:51;;;;;;;83.28;79.80;;;26.20;95.40;;;;;;5095283;28;20464;-68
2021/08/15 10:42:02;;;;;;;84.60;80.83;;;26.30;95.30;;;;;;5095504;28;20497;-68
2021/08/15 10:45:00;;;;;;;81.87;78.30;;;26.40;95.60;;;;;;5094766;28;20432;-69
2021/08/15 10:47:28;;;;;;;21.33;20.23;;;26.50;95.10;;;;;;5092581;28;20452;-68
2021/08/15 10:50:02;;;;;;;474.07;196.30;;;26.60;94.50;;;;;;5095117;28;20200;-70
2021/08/15 10:52:38;;;;;;;315.10;166.30;;;26.60;94.50;;;;;;5110923;28;20484;-70
2021/08/15 10:55:17;;;;;;;105.83;101.40;;;26.60;94.50;;;;;;5093906;28;20848;-70
2021/08/15 10:57:52;;;;;;;102.93;98.50;;;26.60;94.60;;;;;;5093699;28;20882;-70
2021/08/15 11:00:54;;;;;;;116.13;110.97;;;26.60;94.60;;;;;;5095158;28;20424;-70
2021/08/15 11:03:37;;;;;;;64.65;61.50;;;26.50;94.50;;;;;;5094870;28;20515;-70
2021/08/15 11:06:06;;;;;;;504.83;179.67;;;26.50;94.70;;;;;;5093129;28;20194;-70
2021/08/15 11:08:56;;;;;;;93.20;89.03;;;26.50;94.40;;;;;;5094981;28;20962;-70
2021/08/15 11:11:30;;;;;;;28.83;27.13;;;26.50;94.60;;;;;;5094276;28;20516;-70
2021/08/15 11:14:29;;;;;;;281.83;141.33;;;26.50;94.10;;;;;;5094836;28;20579;-72
2021/08/15 11:17:11;;;;;;;103.90;99.53;;;26.50;94.10;;;;;;5094676;28;20468;-72
2021/08/15 11:19:40;;;;;;;94.07;89.93;;;26.40;94.30;;;;;;5095341;28;20424;-72
2021/08/15 11:22:14;;;;;;;109.93;105.33;;;26.50;94.40;;;;;;5093577;28;20480;-72
2021/08/15 11:25:08;;;;;;;93.40;89.37;;;26.50;94.30;;;;;;5095028;28;20411;-72
2021/08/15 11:27:40;;;;;;;199.25;95.65;;;26.50;94.50;;;;;;5080112;28;20475;-72
2021/08/15 11:30:12;;;;;;;509.93;198.20;;;26.60;94.60;;;;;;5094738;28;20647;-72
2021/08/15 11:32:41;;;;;;;280.73;140.57;;;26.70;94.60;;;;;;5094404;28;21012;-72
2021/08/15 11:35:12;;;;;;;26.60;24.90;;;26.70;94.70;;;;;;5091318;28;20493;-72
2021/08/15 11:37:42;;;;;;;481.90;184.33;;;26.80;94.60;;;;;;5095003;28;20417;-72
2021/08/15 11:40:18;;;;;;;323.27;169.37;;;26.90;94.70;;;;;;5094318;28;20923;-72
2021/08/15 11:42:59;;;;;;;346.13;209.47;;;26.90;94.70;;;;;;5093007;28;20490;-72
2021/08/15 11:45:32;;;;;;;327.63;171.70;;;27.00;94.60;;;;;;5085956;28;20432;-72
2021/08/15 11:48:08;;;;;;;89.23;85.37;;;27.00;94.60;;;;;;5094257;28;20500;-72
2021/08/15 11:50:38;;;;;;;246.17;135.97;;;27.00;94.40;;;;;;5074490;28;20421;-72
2021/08/15 11:53:18;;;;;;;107.77;103.03;;;26.90;94.40;;;;;;5073840;28;20469;-72
2021/08/15 11:55:47;;;;;;;312.43;133.60;;;26.90;94.40;;;;;;5073839;28;20453;-72
2021/08/15 11:58:17;;;;;;;151.80;88.90;;;26.90;94.70;;;;;;5092583;28;20456;-72
2021/08/15 12:00:47;;;;;;;66.60;63.73;;;26.90;94.40;;;;;;5093929;28;20527;-72
2021/08/15 12:03:17;;;;;;;109.53;104.47;;;26.80;94.30;;;;;;5092709;28;20873;-72
2021/08/15 12:05:48;;;;;;;98.23;93.93;;;26.80;94.20;;;;;;5092699;28;20794;-72
2021/08/15 12:08:19;;;;;;;304.53;160.63;;;26.90;94.20;;;;;;5092934;28;20476;-72
2021/08/15 12:10:50;;;;;;;117.03;111.87;;;26.90;94.20;;;;;;5094419;28;20424;-72
2021/08/15 12:13:28;;;;;;;108.97;104.37;;;26.90;94.20;;;;;;5093762;28;21069;-72
2021/08/15 12:16:09;;;;;;;92.30;88.33;;;26.90;94.20;;;;;;5092949;28;20472;-72
2021/08/15 12:18:39;;;;;;;35.45;33.40;;;27.00;94.20;;;;;;5090528;28;20444;-72
2021/08/15 12:21:28;;;;;;;321.37;175.97;;;27.10;93.50;;;;;;5093541;28;20552;-72
2021/08/15 12:24:10;;;;;;;594.33;267.73;;;27.10;93.60;;;;;;5077087;28;20483;-72
2021/08/15 12:26:44;;;;;;;140.13;133.93;;;27.20;93.70;;;;;;5092284;28;20527;-72
2021/08/15 12:29:20;;;;;;;326.03;169.93;;;27.10;93.60;;;;;;5093819;28;20432;-72
2021/08/15 12:32:05;;;;;;;323.63;174.73;;;27.10;93.60;;;;;;5093608;28;20489;-72
2021/08/15 12:34:35;;;;;;;128.73;123.73;;;27.10;93.60;;;;;;5091185;28;20467;-72